Time;durP1;ratioP1;P1;durP2;ratioP2;P2;SDS_P1;SDS_P2;PMS_P1;PMS_P2;Temp;Humidity;BMP_temperature;BMP_pressure;BME280_temperature;BME280_humidity;BME280_pressure;Samples;Min_cycle;Max_cycle;Signal;HPM_P1;HPM_P2
2021/05/03 00:00:42;;;;;;;91.72;44.27;;;;;;;17.18;67.74;99746.93;1749979;80;21215;-62
2021/05/03 00:03:10;;;;;;;120.13;51.63;;;;;;;17.89;65.79;99747.73;1761619;81;21198;-55
2021/05/03 00:05:45;;;;;;;189.97;68.65;;;;;;;18.02;65.34;99748.84;1760907;80;21312;-53
2021/05/03 00:08:08;;;;;;;105.55;43.23;;;;;;;18.09;65.18;99746.73;1732624;81;21301;-62
2021/05/03 00:10:37;;;;;;;63.60;29.15;;;;;;;18.09;65.08;99740.08;1761431;81;21119;-62
2021/05/03 00:13:04;;;;;;;103.42;43.35;;;;;;;18.11;65.06;99743.03;1761740;81;21313;-53
2021/05/03 00:15:32;;;;;;;82.88;34.70;;;;;;;18.10;65.07;99749.78;1761013;81;21158;-61
2021/05/03 00:18:00;;;;;;;93.15;38.02;;;;;;;18.16;64.54;99759.23;1761606;81;21618;-54
2021/05/03 00:20:29;;;;;;;117.37;46.90;;;;;;;18.16;64.46;99763.23;1761403;80;21139;-53
2021/05/03 00:22:58;;;;;;;55.40;29.23;;;;;;;18.13;64.38;99757.13;1744205;81;21158;-54
2021/05/03 00:25:28;;;;;;;46.42;22.10;;;;;;;18.14;64.24;99756.64;1761422;80;21119;-62
2021/05/03 00:27:55;;;;;;;42.00;22.10;;;;;;;18.05;64.38;99751.83;1761643;81;21218;-53
2021/05/03 00:30:24;;;;;;;44.33;25.00;;;;;;;18.01;64.27;99755.59;1760831;81;21166;-61
2021/05/03 00:32:52;;;;;;;40.75;21.87;;;;;;;17.95;64.27;99748.29;1761697;81;21519;-62
2021/05/03 00:35:19;;;;;;;27.85;16.93;;;;;;;17.95;64.29;99740.75;1761580;80;21170;-57
2021/05/03 00:37:49;;;;;;;36.73;19.10;;;;;;;17.97;64.28;99735.75;1761613;81;21162;-62
2021/05/03 00:40:17;;;;;;;29.75;16.55;;;;;;;17.94;64.23;99729.72;1760855;80;21566;-62
2021/05/03 00:42:45;;;;;;;26.15;15.50;;;;;;;17.92;64.21;99727.16;1761685;81;21170;-62
2021/05/03 00:45:18;;;;;;;24.85;15.63;;;;;;;17.90;64.13;99724.16;1761521;81;21542;-62
2021/05/03 00:47:46;;;;;;;25.02;15.53;;;;;;;17.80;64.39;99724.68;1761403;81;21163;-62
2021/05/03 00:50:16;;;;;;;24.57;15.53;;;;;;;17.81;64.35;99719.75;1760442;80;21633;-62
2021/05/03 00:52:44;;;;;;;25.60;15.63;;;;;;;17.77;64.37;99709.33;1761905;81;21554;-53
2021/05/03 00:55:14;;;;;;;29.55;15.90;;;;;;;17.79;64.31;99712.31;1761863;80;21131;-62
2021/05/03 00:57:41;;;;;;;26.48;15.35;;;;;;;17.74;64.39;99710.81;1761841;81;21641;-54
2021/05/03 01:00:12;;;;;;;21.25;15.35;;;;;;;17.76;64.32;99708.94;1761232;81;21204;-53
2021/05/03 01:02:40;;;;;;;35.92;21.93;;;;;;;17.78;64.29;99711.92;1761697;81;21166;-53
2021/05/03 01:05:09;;;;;;;31.85;18.82;;;;;;;17.79;64.30;99714.97;1744910;81;21135;-61
2021/05/03 01:07:39;;;;;;;43.78;26.33;;;;;;;17.68;64.35;99718.66;1760835;81;21670;-61
2021/05/03 01:10:08;;;;;;;48.78;32.25;;;;;;;17.62;64.50;99714.53;1761585;81;21193;-62
2021/05/03 01:12:37;;;;;;;47.27;31.82;;;;;;;17.61;64.56;99711.94;1761632;81;21159;-62
2021/05/03 01:15:10;;;;;;;47.03;31.07;;;;;;;17.58;64.53;99716.09;1744780;81;21252;-53
2021/05/03 01:17:42;;;;;;;35.63;24.98;;;;;;;17.56;64.63;99724.62;1760990;81;21554;-62
2021/05/03 01:20:12;;;;;;;32.38;19.75;;;;;;;17.51;64.68;99728.86;1761564;80;21550;-53
2021/05/03 01:22:40;;;;;;;28.95;20.10;;;;;;;17.50;64.74;99725.80;1760930;81;21138;-53
2021/05/03 01:25:10;;;;;;;31.17;19.85;;;;;;;17.44;64.81;99733.61;1755553;82;21586;-61
2021/05/03 01:27:38;;;;;;;34.13;20.32;;;;;;;17.37;65.05;99741.54;1756053;82;21151;-54
2021/05/03 01:30:08;;;;;;;41.75;25.62;;;;;;;17.32;65.47;99750.22;1756516;82;21176;-53
2021/05/03 01:32:35;;;;;;;31.17;19.77;;;;;;;17.30;65.52;99746.77;1756295;82;21194;-53
2021/05/03 01:35:05;;;;;;;26.85;16.97;;;;;;;17.28;65.68;99748.65;1755479;80;21241;-62
2021/05/03 01:37:32;;;;;;;25.80;16.87;;;;;;;17.27;65.82;99741.13;1756221;82;21488;-53
2021/05/03 01:40:00;;;;;;;27.67;16.07;;;;;;;17.31;65.93;99739.19;1756153;82;21543;-53
2021/05/03 01:42:27;;;;;;;22.87;14.50;;;;;;;17.37;66.09;99738.39;1756212;82;21550;-62
2021/05/03 01:44:59;;;;;;;31.10;17.35;;;;;;;17.42;65.97;99751.48;1731063;82;21166;-62
2021/05/03 01:47:27;;;;;;;24.80;17.02;;;;;;;17.44;65.98;99758.04;1751434;82;21144;-61
2021/05/03 01:49:55;;;;;;;23.47;15.32;;;;;;;17.44;66.07;99776.17;1756277;80;21147;-53
2021/05/03 01:52:22;;;;;;;23.07;16.20;;;;;;;17.47;66.21;99768.04;1756252;82;21146;-53
2021/05/03 01:54:51;;;;;;;25.27;16.02;;;;;;;17.50;66.20;99777.69;1756051;80;21205;-61
2021/05/03 01:57:19;;;;;;;25.55;15.68;;;;;;;17.43;66.59;99775.81;1756209;82;21602;-62
2021/05/03 01:59:50;;;;;;;26.45;16.02;;;;;;;17.47;66.70;99783.16;1756157;80;21174;-61
2021/05/03 02:02:17;;;;;;;23.32;14.60;;;;;;;17.52;66.65;99773.98;1746056;82;21578;-53
2021/05/03 02:04:45;;;;;;;22.65;15.15;;;;;;;17.51;66.87;99760.78;1724895;82;21222;-61
2021/05/03 02:07:15;;;;;;;25.68;15.25;;;;;;;17.53;66.93;99764.23;1743826;82;21115;-53
2021/05/03 02:09:44;;;;;;;20.65;13.32;;;;;;;17.56;66.98;99773.39;1756427;82;21210;-53
2021/05/03 02:12:12;;;;;;;22.40;14.23;;;;;;;17.54;67.23;99784.09;1755718;82;21550;-62
2021/05/03 02:14:40;;;;;;;22.13;13.72;;;;;;;17.52;67.40;99785.97;1756157;81;21171;-53
2021/05/03 02:17:09;;;;;;;22.67;13.53;;;;;;;17.53;67.56;99783.70;1756161;82;21285;-54
2021/05/03 02:19:38;;;;;;;23.87;14.07;;;;;;;17.50;67.99;99780.34;1756533;82;21163;-61
2021/05/03 02:22:06;;;;;;;24.55;13.78;;;;;;;17.50;68.34;99772.36;1747141;82;21558;-53
2021/05/03 02:24:33;;;;;;;25.37;13.50;;;;;;;17.51;68.55;99767.44;1750273;81;21622;-52
2021/05/03 02:27:01;;;;;;;24.25;13.48;;;;;;;17.57;68.48;99740.97;1748109;82;21257;-62
2021/05/03 02:29:29;;;;;;;27.60;13.80;;;;;;;17.60;68.41;99728.39;1747648;82;21127;-61
2021/05/03 02:31:56;;;;;;;22.40;12.58;;;;;;;17.39;69.27;99729.87;1748373;82;21602;-58
2021/05/03 02:34:24;;;;;;;23.10;13.93;;;;;;;17.52;68.81;99731.42;1748315;82;21179;-61
2021/05/03 02:36:55;;;;;;;25.32;14.68;;;;;;;17.59;68.68;99747.95;1748311;81;21955;-53
2021/05/03 02:39:22;;;;;;;25.00;15.68;;;;;;;17.66;68.70;99755.98;1747913;82;21603;-61
2021/05/03 02:41:49;;;;;;;21.90;13.70;;;;;;;17.63;69.00;99754.84;1748071;81;21107;-62
2021/05/03 02:44:17;;;;;;;19.75;13.15;;;;;;;17.71;68.76;99755.77;1748347;82;21167;-62
2021/05/03 02:46:46;;;;;;;21.33;12.95;;;;;;;17.70;68.90;99756.70;1748125;81;21155;-53
2021/05/03 02:49:14;;;;;;;25.95;13.98;;;;;;;17.46;69.43;99753.50;1747462;82;21163;-61
2021/05/03 02:51:42;;;;;;;24.20;13.93;;;;;;;17.65;69.19;99754.30;1748619;81;21119;-53
2021/05/03 02:54:10;;;;;;;23.80;14.28;;;;;;;17.75;68.98;99759.98;1748149;82;21313;-61
2021/05/03 02:56:38;;;;;;;22.30;13.62;;;;;;;17.79;68.80;99760.22;1742459;81;21126;-61
2021/05/03 02:59:06;;;;;;;21.70;13.85;;;;;;;17.67;69.28;99758.19;1716983;83;21615;-52
2021/05/03 03:01:34;;;;;;;24.70;13.18;;;;;;;17.83;68.74;99755.13;1717338;82;21204;-54
2021/05/03 03:04:02;;;;;;;23.40;13.58;;;;;;;17.87;68.67;99758.97;1717158;83;21313;-61
2021/05/03 03:06:30;;;;;;;19.87;13.78;;;;;;;17.89;68.57;99755.27;1744860;82;21143;-62
2021/05/03 03:08:57;;;;;;;21.30;13.48;;;;;;;17.92;68.57;99748.45;1712236;83;21605;-54
2021/05/03 03:11:25;;;;;;;23.87;13.22;;;;;;;17.95;68.50;99752.73;1748199;82;21100;-62
2021/05/03 03:13:53;;;;;;;22.73;13.70;;;;;;;17.98;68.45;99750.79;1689285;84;21203;-53
2021/05/03 03:16:22;;;;;;;21.95;12.23;;;;;;;18.00;68.33;99741.41;1685001;84;21611;-61
2021/05/03 03:18:50;;;;;;;22.22;13.22;;;;;;;18.03;68.19;99749.23;1678050;85;21579;-53
2021/05/03 03:21:17;;;;;;;21.82;12.73;;;;;;;18.03;68.26;99748.39;1707727;84;21162;-54
2021/05/03 03:23:45;;;;;;;15.85;11.70;;;;;;;18.06;68.29;99762.88;1745487;82;21171;-52
2021/05/03 03:26:13;;;;;;;24.67;13.25;;;;;;;18.09;68.26;99760.89;1727016;82;21309;-62
2021/05/03 03:28:41;;;;;;;24.43;13.13;;;;;;;18.16;68.04;99765.89;1748297;82;21646;-53
2021/05/03 03:31:08;;;;;;;18.73;12.23;;;;;;;18.13;68.15;99767.78;1747769;82;21131;-62
2021/05/03 03:33:36;;;;;;;22.15;12.68;;;;;;;18.13;68.11;99768.23;1748389;82;21175;-53
2021/05/03 03:36:05;;;;;;;20.45;12.63;;;;;;;18.16;68.08;99776.55;1748210;82;21188;-53
2021/05/03 03:38:34;;;;;;;20.85;12.35;;;;;;;18.20;68.02;99785.61;1748389;82;21155;-53
2021/05/03 03:41:02;;;;;;;20.43;12.47;;;;;;;18.28;67.91;99787.87;1747479;81;21599;-53
2021/05/03 03:43:31;;;;;;;23.02;13.70;;;;;;;18.34;67.94;99797.33;1748071;82;21179;-53
2021/05/03 03:45:59;;;;;;;20.65;12.73;;;;;;;18.39;67.94;99807.27;1748367;81;21107;-54
2021/05/03 03:48:27;;;;;;;22.25;12.45;;;;;;;18.38;67.94;99814.39;1746252;82;21128;-62
2021/05/03 03:50:55;;;;;;;23.40;12.73;;;;;;;17.98;68.99;99815.14;1718391;82;21313;-61
2021/05/03 03:53:23;;;;;;;20.77;12.30;;;;;;;17.49;71.08;99827.84;1719791;82;21195;-53
2021/05/03 03:55:50;;;;;;;18.77;11.75;;;;;;;18.16;69.00;99821.82;1748110;81;21116;-62
2021/05/03 03:58:18;;;;;;;22.07;11.83;;;;;;;18.21;68.77;99823.77;1736227;82;21606;-62
2021/05/03 04:00:45;;;;;;;22.27;13.48;;;;;;;18.20;69.03;99822.05;1718477;82;21175;-54
2021/05/03 04:03:13;;;;;;;21.12;13.62;;;;;;;18.23;68.84;99820.07;1718546;82;21614;-53
2021/05/03 04:11:16;;;;;;;21.65;13.48;;;;;;;18.46;68.48;99811.33;1712015;81;21304;-54
2021/05/03 04:27:04;;;;;;;21.48;12.53;;;;;;;19.04;68.10;99777.05;1839066;77;22134;-62
2021/05/03 04:29:32;;;;;;;22.60;12.03;;;;;;;19.08;68.22;99782.59;1793205;78;21613;-61
2021/05/03 04:32:00;;;;;;;20.80;11.83;;;;;;;19.16;68.15;99776.84;1748277;81;21640;-53
2021/05/03 04:34:28;;;;;;;17.75;12.20;;;;;;;19.23;68.14;99786.17;1718265;82;21211;-61
2021/05/03 04:36:56;;;;;;;24.92;13.08;;;;;;;19.20;68.56;99793.52;1727062;81;21617;-53
2021/05/03 04:39:23;;;;;;;18.60;11.68;;;;;;;19.40;68.36;99795.02;1678488;85;21190;-53
2021/05/03 04:41:51;;;;;;;18.35;11.08;;;;;;;19.55;68.49;99799.92;1707801;84;21212;-61
2021/05/03 04:44:19;;;;;;;18.80;11.75;;;;;;;19.70;67.94;99796.81;1722868;81;21179;-61
2021/05/03 04:46:47;;;;;;;16.85;11.00;;;;;;;19.76;68.00;99798.66;1729409;83;21197;-53
2021/05/03 04:49:14;;;;;;;21.30;12.55;;;;;;;19.93;68.21;99794.13;1700899;84;21630;-61
2021/05/03 04:51:43;;;;;;;19.07;11.70;;;;;;;20.10;67.77;99785.56;1733660;82;21193;-61
2021/05/03 04:54:11;;;;;;;24.32;11.68;;;;;;;20.23;67.48;99790.54;1715523;82;21217;-62
2021/05/03 04:56:39;;;;;;;17.92;11.33;;;;;;;20.19;66.93;99793.86;1708152;84;21214;-61
2021/05/03 04:59:06;;;;;;;19.35;11.65;;;;;;;20.26;67.15;99794.82;1707947;84;21156;-54
2021/05/03 05:01:35;;;;;;;15.03;11.12;;;;;;;20.26;67.02;99798.37;1717410;82;21195;-53
2021/05/03 05:04:03;;;;;;;17.30;11.55;;;;;;;20.24;66.90;99798.94;1776334;80;21111;-54
2021/05/03 05:06:33;;;;;;;17.05;10.58;;;;;;;20.27;66.98;99797.41;1730645;82;21166;-62
2021/05/03 05:09:04;;;;;;;20.90;10.85;;;;;;;20.31;66.88;99800.25;1730606;83;21135;-53
2021/05/03 05:11:32;;;;;;;14.93;10.72;;;;;;;20.35;66.81;99792.42;1740572;81;21122;-55
2021/05/03 05:14:00;;;;;;;20.82;11.18;;;;;;;20.40;66.71;99797.96;1758586;81;21602;-55
2021/05/03 05:16:28;;;;;;;16.50;10.90;;;;;;;20.45;66.53;99795.41;1758621;81;21186;-55
2021/05/03 05:18:56;;;;;;;17.35;10.08;;;;;;;20.53;66.96;99790.89;1758601;81;21313;-63
2021/05/03 05:21:24;;;;;;;21.15;11.40;;;;;;;20.67;67.66;99791.84;1744392;81;21151;-55
2021/05/03 05:23:53;;;;;;;19.48;11.43;;;;;;;20.84;67.87;99798.81;1726900;83;21627;-55
2021/05/03 05:26:20;;;;;;;16.40;12.10;;;;;;;20.98;66.74;99798.75;1694113;83;21618;-56
2021/05/03 05:28:48;;;;;;;18.02;12.53;;;;;;;21.17;67.99;99797.09;1778033;80;21150;-55
2021/05/03 05:31:16;;;;;;;22.90;11.80;;;;;;;21.44;67.96;99791.31;1785550;80;21174;-55
2021/05/03 05:33:44;;;;;;;20.97;11.05;;;;;;;21.65;66.94;99799.28;1787917;80;21577;-62
2021/05/03 05:36:13;;;;;;;15.28;10.05;;;;;;;21.80;66.76;99804.06;1787660;80;21171;-52
2021/05/03 05:38:41;;;;;;;15.00;10.13;;;;;;;21.96;65.91;99796.31;1779435;80;21126;-54
2021/05/03 05:41:10;;;;;;;22.42;10.58;;;;;;;22.13;67.07;99801.34;1781518;80;21182;-62
2021/05/03 05:43:38;;;;;;;18.05;10.60;;;;;;;22.36;66.76;99804.23;1787335;80;21625;-54
2021/05/03 05:46:06;;;;;;;15.03;9.20;;;;;;;22.53;66.91;99811.10;1787560;79;21192;-54
2021/05/03 05:48:35;;;;;;;15.00;8.85;;;;;;;22.62;65.56;99841.76;1785732;80;21162;-64
2021/05/03 05:51:04;;;;;;;12.95;8.63;;;;;;;22.63;64.62;99842.13;1787259;80;21550;-55
2021/05/03 05:53:33;;;;;;;13.68;8.13;;;;;;;22.65;63.91;99844.72;1787155;80;21178;-63
2021/05/03 05:56:01;;;;;;;13.72;7.22;;;;;;;22.69;64.38;99847.06;1786760;80;21199;-55
2021/05/03 05:58:32;;;;;;;11.30;8.15;;;;;;;22.80;63.58;99850.30;1746134;81;21685;-55
2021/05/03 06:01:01;;;;;;;14.47;8.03;;;;;;;22.95;64.04;99838.09;1710820;84;21616;-63
2021/05/03 06:03:29;;;;;;;11.33;8.20;;;;;;;23.07;63.71;99842.58;1722636;83;21143;-64
2021/05/03 06:05:57;;;;;;;16.90;8.20;;;;;;;23.23;63.21;99840.98;1714744;83;21158;-54
2021/05/03 06:08:26;;;;;;;16.40;7.67;;;;;;;23.37;62.50;99846.66;1756380;81;21143;-54
2021/05/03 06:10:53;;;;;;;11.60;5.72;;;;;;;23.47;62.47;99838.77;1756262;82;21551;-55
2021/05/03 06:13:21;;;;;;;10.55;4.50;;;;;;;23.51;59.06;99838.06;1756123;82;21169;-64
2021/05/03 06:15:51;;;;;;;7.92;3.58;;;;;;;23.60;58.42;99844.09;1778244;80;21163;-55
2021/05/03 06:18:18;;;;;;;8.48;4.03;;;;;;;23.63;55.34;99846.52;1777045;80;21527;-54
2021/05/03 06:20:46;;;;;;;7.03;3.33;;;;;;;23.72;55.15;99853.88;1781788;79;21143;-55
2021/05/03 06:23:14;;;;;;;6.30;2.98;;;;;;;23.79;54.75;99865.05;1785842;80;21140;-64
2021/05/03 06:25:43;;;;;;;9.78;3.77;;;;;;;23.78;53.63;99878.11;1768737;80;21606;-62
2021/05/03 06:28:11;;;;;;;8.63;3.40;;;;;;;23.77;53.38;99880.42;1784645;80;21558;-64
2021/05/03 06:30:39;;;;;;;8.00;3.62;;;;;;;23.79;53.76;99881.63;1747116;82;21143;-54
2021/05/03 06:33:07;;;;;;;8.20;3.22;;;;;;;23.78;53.14;99887.51;1739475;82;21283;-54
2021/05/03 06:35:36;;;;;;;9.60;3.30;;;;;;;23.78;52.88;99893.35;1714319;82;21719;-53
2021/05/03 06:38:06;;;;;;;8.18;3.33;;;;;;;23.81;53.23;99887.75;1729875;83;21175;-65
2021/05/03 06:40:34;;;;;;;5.65;2.72;;;;;;;23.84;53.44;99896.45;1741454;82;21147;-55
2021/05/03 06:43:02;;;;;;;6.75;3.35;;;;;;;23.84;53.13;99906.33;1776218;80;21126;-64
2021/05/03 06:45:33;;;;;;;10.08;3.67;;;;;;;23.88;53.34;99898.41;1779103;80;21187;-64
2021/05/03 06:48:01;;;;;;;8.90;4.33;;;;;;;23.94;53.69;99899.28;1779423;81;21308;-64
2021/05/03 06:50:29;;;;;;;7.40;3.58;;;;;;;24.03;54.27;99900.44;1778596;81;21162;-55
2021/05/03 06:52:57;;;;;;;8.95;3.30;;;;;;;24.11;54.24;99887.27;1753993;81;21570;-55
2021/05/03 06:55:26;;;;;;;10.10;3.60;;;;;;;24.14;53.90;99876.28;1763710;80;21119;-63
2021/05/03 06:57:54;;;;;;;10.50;3.50;;;;;;;24.14;52.83;99871.37;1747494;82;21328;-64
2021/05/03 07:00:24;;;;;;;6.78;2.95;;;;;;;24.13;52.81;99877.73;1741687;82;21602;-64
2021/05/03 07:02:52;;;;;;;5.33;2.70;;;;;;;23.98;51.51;99910.20;1762339;80;21160;-64
2021/05/03 07:05:20;;;;;;;8.83;3.10;;;;;;;23.98;51.51;99910.20;1784605;80;21881;-64
2021/05/03 07:07:47;;;;;;;7.67;3.17;;;;;;;23.92;52.46;99921.39;1784203;80;21644;-55
2021/05/03 07:10:16;;;;;;;9.25;4.15;;;;;;;23.76;52.75;99940.50;1766850;80;21143;-55
2021/05/03 07:12:46;;;;;;;8.73;3.50;;;;;;;23.59;53.20;99960.06;1748243;81;21634;-55
2021/05/03 07:15:16;;;;;;;8.60;3.65;;;;;;;23.56;53.97;99995.70;1769879;80;21103;-64
2021/05/03 07:17:45;;;;;;;8.48;4.20;;;;;;;23.46;55.07;100024.56;1775897;80;21151;-55
2021/05/03 07:20:14;;;;;;;13.40;5.05;;;;;;;23.36;56.03;100038.27;1759714;80;21182;-63
2021/05/03 07:22:42;;;;;;;12.50;5.90;;;;;;;23.24;56.99;100039.14;1756441;80;21143;-63
2021/05/03 07:25:12;;;;;;;12.68;7.00;;;;;;;23.09;58.24;100039.72;1747598;81;21582;-54
2021/05/03 07:27:40;;;;;;;12.33;6.80;;;;;;;22.93;58.88;100031.88;1727097;82;21103;-54
2021/05/03 07:30:12;;;;;;;8.97;5.23;;;;;;;22.81;59.38;100037.63;1747065;82;21167;-63
2021/05/03 07:32:40;;;;;;;12.75;6.58;;;;;;;22.55;60.75;100038.45;1727275;82;21301;-63
2021/05/03 07:35:11;;;;;;;14.23;5.70;;;;;;;22.22;61.89;100038.40;1724834;82;21151;-63
2021/05/03 07:37:39;;;;;;;16.52;5.15;;;;;;;21.29;64.21;100048.80;1734615;82;21293;-60
2021/05/03 07:40:08;;;;;;;9.50;4.85;;;;;;;22.10;60.97;100035.19;1740815;82;21620;-56
2021/05/03 07:42:36;;;;;;;9.43;5.35;;;;;;;22.18;60.79;100034.67;1729637;82;21158;-54
2021/05/03 07:45:08;;;;;;;10.90;4.37;;;;;;;22.21;60.75;100033.13;1732390;82;21140;-61
2021/05/03 07:47:37;;;;;;;7.97;3.72;;;;;;;22.20;61.02;100017.54;1731470;82;21160;-54
2021/05/03 07:50:07;;;;;;;7.65;3.65;;;;;;;22.18;61.23;100026.16;1728617;82;21277;-54
2021/05/03 07:52:35;;;;;;;9.38;4.30;;;;;;;22.18;61.74;100028.84;1722875;82;21180;-55
2021/05/03 07:55:05;;;;;;;10.82;4.20;;;;;;;22.20;62.43;100023.36;1728671;82;21159;-54
2021/05/03 07:57:33;;;;;;;6.10;3.02;;;;;;;22.19;62.53;100034.58;1746885;82;21349;-61
2021/05/03 08:00:01;;;;;;;4.55;2.00;;;;;;;23.01;55.19;100033.05;1736357;82;21115;-54
2021/05/03 08:02:29;;;;;;;5.25;2.52;;;;;;;22.14;54.18;100027.33;1722902;82;21175;-55
2021/05/03 08:04:56;;;;;;;6.42;2.40;;;;;;;21.86;56.71;100025.11;1672827;85;21165;-55
2021/05/03 08:07:24;;;;;;;3.37;1.77;;;;;;;21.64;56.65;100029.19;1657037;86;21361;-62
2021/05/03 08:09:53;;;;;;;3.90;1.40;;;;;;;21.43;55.65;100035.41;1683474;84;21174;-54
2021/05/03 08:12:21;;;;;;;5.67;1.80;;;;;;;21.35;55.34;100025.20;1685534;85;21329;-61
2021/05/03 08:14:53;;;;;;;2.70;1.60;;;;;;;21.32;55.44;100026.73;1701913;84;21417;-54
2021/05/03 08:17:20;;;;;;;4.25;1.57;;;;;;;21.34;55.74;100023.94;1711960;84;21627;-62
2021/05/03 08:19:48;;;;;;;3.70;1.40;;;;;;;21.36;55.17;100028.72;1710767;84;21472;-63
2021/05/03 08:22:16;;;;;;;2.75;1.60;;;;;;;21.37;55.16;100027.30;1708853;84;21192;-54
2021/05/03 08:24:45;;;;;;;2.50;1.40;;;;;;;21.47;55.58;100020.88;1711719;84;21175;-62
2021/05/03 08:27:13;;;;;;;3.98;1.50;;;;;;;21.62;55.84;100023.08;1731847;82;21567;-54
2021/05/03 08:29:41;;;;;;;2.87;1.67;;;;;;;21.77;55.38;100025.73;1769194;80;21582;-54
2021/05/03 08:32:09;;;;;;;2.52;1.47;;;;;;;21.90;55.41;100033.33;1786414;80;21139;-63
2021/05/03 08:34:38;;;;;;;4.78;1.40;;;;;;;22.05;54.64;100041.33;1787018;80;21164;-54
2021/05/03 08:37:06;;;;;;;2.20;1.52;;;;;;;22.20;54.09;100035.42;1779413;80;21146;-54
2021/05/03 08:39:34;;;;;;;2.37;1.17;;;;;;;22.42;54.33;100029.48;1728691;82;21610;-63
2021/05/03 08:42:02;;;;;;;1.87;1.20;;;;;;;22.74;53.94;100023.76;1732320;82;21697;-54
2021/05/03 08:44:30;;;;;;;3.30;1.35;;;;;;;23.15;53.45;100021.38;1704267;84;21148;-54
2021/05/03 08:46:58;;;;;;;3.92;1.45;;;;;;;23.44;51.96;100013.55;1720717;83;21621;-55
2021/05/03 08:54:48;;;;;;;4.22;1.55;;;;;;;24.37;49.61;100000.52;1700182;84;21579;-57
2021/05/03 08:57:15;;;;;;;1.98;1.25;;;;;;;24.66;48.40;99998.27;1727613;82;21651;-64
2021/05/03 08:59:43;;;;;;;2.72;1.60;;;;;;;24.91;48.71;99997.24;1774596;80;21147;-64
2021/05/03 09:02:13;;;;;;;3.85;1.70;;;;;;;25.23;47.38;99992.94;1786785;80;21178;-64
2021/05/03 09:04:43;;;;;;;2.80;1.98;;;;;;;25.44;47.19;100001.16;1719727;82;21622;-55
2021/05/03 09:07:13;;;;;;;2.67;1.27;;;;;;;25.70;46.73;99994.14;1743664;81;21163;-64
2021/05/03 09:09:48;;;;;;;6.15;1.67;;;;;;;26.08;46.12;99989.22;1711615;82;21178;-54
2021/05/03 09:12:21;;;;;;;2.75;1.10;;;;;;;26.39;43.83;99994.77;1769002;81;21147;-54
2021/05/03 09:15:01;;;;;;;3.67;1.20;;;;;;;26.71;43.87;99996.02;1847836;77;22193;-53
2021/05/03 09:17:40;;;;;;;2.55;1.32;;;;;;;26.90;43.69;99996.31;1783050;80;21134;-60
2021/05/03 09:20:16;;;;;;;2.47;1.17;;;;;;;27.11;41.36;99996.27;1762115;81;21601;-62
2021/05/03 09:22:58;;;;;;;2.55;1.32;;;;;;;27.39;42.73;100001.40;1762095;81;21149;-53
2021/05/03 09:28:19;;;;;;;2.72;1.40;;;;;;;28.26;40.37;100010.34;1820068;77;22134;-64
2021/05/03 09:30:57;;;;;;;2.27;1.00;;;;;;;28.42;39.84;100008.41;1759254;81;21215;-62
2021/05/03 09:36:14;;;;;;;3.37;1.20;;;;;;;28.25;37.90;100005.45;1821389;77;22628;-63
2021/05/03 09:38:49;;;;;;;1.27;1.10;;;;;;;27.91;37.86;100016.63;1793078;80;21138;-53
2021/05/03 09:41:25;;;;;;;7.42;1.57;;;;;;;27.55;38.67;100024.39;1793246;80;21159;-63
2021/05/03 09:44:06;;;;;;;2.08;1.25;;;;;;;27.37;38.50;100033.61;1790298;80;21123;-54
2021/05/03 09:46:45;;;;;;;3.22;1.45;;;;;;;27.19;38.94;100026.65;1759808;80;21166;-64
2021/05/03 09:49:16;;;;;;;3.72;1.40;;;;;;;27.04;39.18;100025.64;1782693;80;21542;-55
2021/05/03 09:51:53;;;;;;;2.27;1.05;;;;;;;26.65;39.31;100024.91;1793008;80;21539;-64
2021/05/03 09:54:29;;;;;;;1.65;1.05;;;;;;;26.41;38.79;100022.47;1780874;80;21594;-54
2021/05/03 09:57:07;;;;;;;2.33;1.27;;;;;;;26.31;39.34;100014.78;1772364;80;21147;-63
2021/05/03 10:02:26;;;;;;;1.75;1.15;;;;;;;26.56;41.15;100004.95;1830260;77;22120;-61
2021/05/03 10:05:12;;;;;;;2.67;1.60;;;;;;;26.97;40.27;100008.27;1775596;80;21613;-64
2021/05/03 10:07:40;;;;;;;4.30;1.87;;;;;;;27.42;39.47;100004.34;1728261;83;21616;-55
2021/05/03 10:10:19;;;;;;;5.85;2.47;;;;;;;27.84;39.33;100001.95;1715037;82;21179;-56
2021/05/03 10:12:44;;;;;;;3.67;1.80;;;;;;;28.24;39.09;99994.75;1720116;83;21267;-65
2021/05/03 10:15:14;;;;;;;4.60;1.67;;;;;;;28.47;38.47;100002.06;1714798;84;21629;-64
2021/05/03 10:17:44;;;;;;;4.60;1.70;;;;;;;28.53;38.27;99991.15;1714469;84;21123;-64
2021/05/03 10:20:16;;;;;;;2.83;1.20;;;;;;;28.61;38.80;99994.86;1703712;83;21202;-64
2021/05/03 10:22:45;;;;;;;4.22;1.95;;;;;;;29.03;37.91;99983.29;1720407;83;21559;-64
2021/05/03 10:25:17;;;;;;;3.23;1.50;;;;;;;29.52;36.74;99977.16;1697318;84;21246;-55
2021/05/03 10:27:50;;;;;;;4.20;1.65;;;;;;;29.67;36.57;99979.33;1697075;83;21169;-64
2021/05/03 10:30:22;;;;;;;3.40;1.60;;;;;;;29.74;36.27;99980.42;1706666;83;21176;-53
2021/05/03 10:33:02;;;;;;;3.02;1.60;;;;;;;29.64;36.48;99978.27;1721292;83;21170;-55
2021/05/03 10:35:41;;;;;;;5.12;1.98;;;;;;;29.62;37.18;99982.51;1721863;83;21601;-55
2021/05/03 10:38:30;;;;;;;2.70;1.35;;;;;;;29.32;36.01;99981.80;1710446;83;21179;-53
2021/05/03 10:41:00;;;;;;;1.82;1.22;;;;;;;28.94;35.75;99980.95;1722138;83;21272;-56
2021/05/03 10:43:41;;;;;;;3.45;1.77;;;;;;;28.71;34.66;100007.02;1722844;83;21166;-64
2021/05/03 10:46:53;;;;;;;1.77;1.20;;;;;;;28.67;34.71;100010.17;1725166;83;21107;-53
2021/05/03 10:51:40;;;;;;;2.45;1.57;;;;;;;28.77;33.99;100022.70;1724126;83;21309;-55
2021/05/03 10:57:16;;;;;;;2.65;1.65;;;;;;;29.11;35.31;99993.37;1791782;77;38368;-61
2021/05/03 10:59:51;;;;;;;2.25;1.30;;;;;;;29.13;35.25;99991.37;1788139;80;21131;-63
2021/05/03 11:02:23;;;;;;;2.70;1.72;;;;;;;28.85;33.83;99998.11;1743954;81;21158;-55
2021/05/03 11:05:26;;;;;;;3.67;1.60;;;;;;;28.34;34.27;100009.98;1738661;80;21656;-65
2021/05/03 11:08:09;;;;;;;2.72;1.52;;;;;;;27.68;35.04;100019.59;1754815;81;21562;-63
2021/05/03 11:11:02;;;;;;;1.98;1.12;;;;;;;27.06;35.24;100019.62;1761889;81;21666;-55
2021/05/03 11:13:46;;;;;;;2.40;1.10;;;;;;;26.40;35.45;100031.04;1761832;81;21166;-63
2021/05/03 11:16:33;;;;;;;3.77;1.00;;;;;;;25.80;35.58;100030.14;1745451;81;21574;-64
2021/05/03 11:19:34;;;;;;;2.45;1.00;;;;;;;25.33;36.19;100051.83;1761796;81;21146;-54
2021/05/03 11:22:00;;;;;;;2.22;1.00;;;;;;;24.88;36.57;100060.73;1757645;81;21565;-63
2021/05/03 11:24:35;;;;;;;2.45;1.17;;;;;;;24.36;37.05;100072.25;1749790;81;21139;-53
2021/05/03 11:27:04;;;;;;;1.92;0.80;;;;;;;23.94;37.46;100094.13;1759576;81;21277;-62
2021/05/03 11:29:43;;;;;;;1.22;0.72;;;;;;;23.54;37.65;100101.89;1760190;81;21586;-53
2021/05/03 11:32:08;;;;;;;4.87;1.17;;;;;;;23.28;38.17;100099.23;1761263;81;21652;-53
2021/05/03 11:35:02;;;;;;;1.70;1.15;;;;;;;23.15;39.55;100095.19;1750706;81;21154;-63
2021/05/03 11:37:33;;;;;;;2.95;1.40;;;;;;;22.97;39.88;100103.16;1751298;81;21146;-50
2021/05/03 11:43:01;;;;;;;5.53;1.45;;;;;;;22.62;41.42;100092.52;1711400;83;21907;-51
2021/05/03 11:45:16;;;;;;;4.20;1.37;;;;;;;22.56;42.06;100076.84;1705804;82;21187;-54
2021/05/03 11:47:44;;;;;;;5.05;1.80;;;;;;;22.45;41.65;100074.89;1716202;83;21531;-53
2021/05/03 11:50:19;;;;;;;3.67;1.70;;;;;;;22.36;42.44;100068.30;1713660;84;21697;-63
2021/05/03 11:52:46;;;;;;;3.00;2.00;;;;;;;22.25;42.55;100055.62;1714583;83;21669;-53
2021/05/03 11:55:17;;;;;;;4.40;2.08;;;;;;;22.36;43.19;100062.06;1702253;83;21717;-53
2021/05/03 11:57:48;;;;;;;3.83;1.90;;;;;;;22.78;43.81;100076.73;1740594;82;21292;-63
2021/05/03 12:00:20;;;;;;;7.30;2.02;;;;;;;23.45;42.79;100094.48;1732781;82;21620;-55
2021/05/03 12:03:02;;;;;;;4.25;1.52;;;;;;;23.47;40.89;100110.00;1757036;82;21123;-64
2021/05/03 12:05:31;;;;;;;2.50;1.47;;;;;;;23.23;41.25;100110.78;1756798;80;21555;-53
2021/05/03 12:08:15;;;;;;;3.92;1.57;;;;;;;23.37;39.95;100107.63;1756194;82;21147;-64
2021/05/03 12:10:43;;;;;;;3.70;1.40;;;;;;;23.46;39.68;100110.97;1756101;82;21554;-63
2021/05/03 12:13:15;;;;;;;2.75;1.20;;;;;;;23.63;39.53;100111.11;1739074;82;21574;-62
2021/05/03 12:15:43;;;;;;;1.65;1.05;;;;;;;23.83;38.39;100108.83;1754447;80;21154;-54